createdAt,value
2023-03-26T00:00:34.687Z,7.35
2023-03-26T00:01:37.064Z,7.41
2023-03-26T00:02:40.044Z,7.39
2023-03-26T00:03:42.867Z,7.39
2023-03-26T00:04:46.909Z,7.34
2023-03-26T00:05:49.284Z,7.30
2023-03-26T00:06:51.379Z,7.17
2023-03-26T00:07:53.343Z,7.20
2023-03-26T00:08:57.964Z,7.24
2023-03-26T00:10:00.025Z,7.26
2023-03-26T00:11:04.269Z,7.26
2023-03-26T00:12:06.472Z,7.17
2023-03-26T00:13:08.780Z,7.13
2023-03-26T00:14:14.300Z,7.17
2023-03-26T00:15:16.395Z,7.14
2023-03-26T00:16:20.531Z,7.14
2023-03-26T00:17:22.925Z,7.19
2023-03-26T00:18:30.998Z,7.21
2023-03-26T00:19:34.145Z,7.20
2023-03-26T00:20:36.122Z,7.21
2023-03-26T00:21:38.100Z,7.22
2023-03-26T00:22:41.834Z,7.15
2023-03-26T00:23:44.490Z,7.09
2023-03-26T00:24:49.527Z,7.04
2023-03-26T00:25:52.170Z,7.06
2023-03-26T00:26:55.359Z,7.10
2023-03-26T00:27:57.557Z,7.20
2023-03-26T00:29:00.478Z,7.28
2023-03-26T00:30:04.309Z,7.35
2023-03-26T00:31:17.695Z,7.40
2023-03-26T00:32:21.004Z,7.47
2023-03-26T00:33:23.238Z,7.43
2023-03-26T00:34:26.605Z,7.39
2023-03-26T00:35:31.716Z,7.34
2023-03-26T00:36:36.328Z,7.29
2023-03-26T00:37:38.454Z,7.20
2023-03-26T00:38:41.567Z,7.10
2023-03-26T00:39:44.900Z,7.07
2023-03-26T00:40:48.434Z,7.09
2023-03-26T00:41:54.854Z,7.11
2023-03-26T00:42:56.968Z,7.15
2023-03-26T00:44:00.302Z,7.14
2023-03-26T00:45:02.211Z,7.13
2023-03-26T00:46:04.423Z,7.08
2023-03-26T00:47:06.681Z,7.03
2023-03-26T00:48:08.750Z,6.96
2023-03-26T00:49:11.244Z,6.94
2023-03-26T00:50:15.744Z,7.01
2023-03-26T00:51:19.932Z,7.07
2023-03-26T00:52:22.170Z,7.10
2023-03-26T00:53:24.217Z,7.15
2023-03-26T00:54:27.534Z,7.19
2023-03-26T00:55:29.522Z,7.27
2023-03-26T00:56:31.832Z,7.34
2023-03-26T00:57:35.906Z,7.37
2023-03-26T00:58:39.228Z,7.41
2023-03-26T00:59:42.672Z,7.47
2023-03-26T01:00:59.342Z,7.46
2023-03-26T01:02:01.661Z,7.48
2023-03-26T01:03:05.435Z,7.52
2023-03-26T01:04:28.519Z,7.51
2023-03-26T01:05:36.310Z,7.53
2023-03-26T01:06:42.403Z,7.56
2023-03-26T01:07:45.035Z,7.59
2023-03-26T01:08:49.696Z,7.63
2023-03-26T01:09:52.034Z,7.67
2023-03-26T01:11:03.086Z,7.59
2023-03-26T01:12:09.445Z,7.49
2023-03-26T01:13:11.623Z,7.48
2023-03-26T01:14:18.725Z,7.39
2023-03-26T01:15:22.597Z,7.32
2023-03-26T01:16:45.564Z,7.32
2023-03-26T01:17:47.530Z,7.33
2023-03-26T01:18:50.352Z,7.35
2023-03-26T01:20:01.651Z,7.39
2023-03-26T01:21:09.580Z,7.47
2023-03-26T01:22:18.485Z,7.54
2023-03-26T01:23:25.062Z,7.59
2023-03-26T01:24:27.445Z,7.63
2023-03-26T01:25:32.267Z,7.68
2023-03-26T01:27:10.042Z,7.71
2023-03-26T01:28:12.860Z,7.75
2023-03-26T01:29:43.940Z,7.78
2023-03-26T01:30:58.918Z,7.71
2023-03-26T01:32:13.986Z,7.66
2023-03-26T01:33:37.104Z,7.56
2023-03-26T01:34:49.993Z,7.41
2023-03-26T01:35:55.122Z,7.33
2023-03-26T01:37:13.594Z,7.25
2023-03-26T01:38:31.304Z,7.26
2023-03-26T01:39:42.792Z,7.24
2023-03-26T01:40:55.310Z,7.26
2023-03-26T01:42:03.177Z,7.27
2023-03-26T01:43:11.796Z,7.32
2023-03-26T01:44:28.985Z,7.36
2023-03-26T01:45:34.965Z,7.39
2023-03-26T01:46:37.877Z,7.45
2023-03-26T01:47:42.602Z,7.41
2023-03-26T01:48:47.218Z,7.37
2023-03-26T01:49:49.323Z,7.25
2023-03-26T01:50:54.145Z,7.14
2023-03-26T01:51:58.449Z,7.19
2023-03-26T01:53:01.040Z,7.21
2023-03-26T01:54:06.207Z,7.21
2023-03-26T01:55:11.929Z,7.12
2023-03-26T01:56:37.017Z,7.13
2023-03-26T01:57:49.996Z,7.17
2023-03-26T01:58:57.845Z,7.21
2023-03-26T02:00:12.407Z,7.26
2023-03-26T02:01:30.437Z,7.26
2023-03-26T02:02:44.412Z,7.31
2023-03-26T02:04:20.663Z,7.41
2023-03-26T02:05:32.317Z,7.48
2023-03-26T02:06:45.931Z,7.53
2023-03-26T02:08:22.911Z,7.50
2023-03-26T02:09:31.175Z,7.39
2023-03-26T02:10:38.439Z,7.32
2023-03-26T02:11:41.879Z,7.19
2023-03-26T02:12:45.028Z,7.11
2023-03-26T02:13:47.282Z,7.05
2023-03-26T02:14:49.761Z,7.03
2023-03-26T02:15:55.309Z,7.07
2023-03-26T02:16:58.792Z,7.04
2023-03-26T02:18:02.153Z,7.09
2023-03-26T02:19:04.746Z,7.12
2023-03-26T02:20:11.203Z,6.99
2023-03-26T02:21:20.580Z,6.94
2023-03-26T02:22:22.872Z,6.93
2023-03-26T02:23:24.796Z,6.88
2023-03-26T02:24:27.305Z,6.80
2023-03-26T02:25:29.087Z,6.75
2023-03-26T02:26:33.873Z,6.75
2023-03-26T02:27:37.004Z,6.81
2023-03-26T02:28:39.082Z,6.88
2023-03-26T02:29:42.859Z,6.95
2023-03-26T02:30:46.105Z,7.04
2023-03-26T02:31:51.395Z,7.11
2023-03-26T02:32:54.491Z,7.17
2023-03-26T02:33:57.745Z,7.18
2023-03-26T02:35:00.186Z,7.18
2023-03-26T02:36:02.727Z,7.22
2023-03-26T02:37:04.782Z,7.17
2023-03-26T02:38:06.894Z,7.03
2023-03-26T02:39:14.532Z,7.07
2023-03-26T02:40:21.565Z,7.12
2023-03-26T02:41:23.717Z,7.17
2023-03-26T02:42:25.860Z,7.14
2023-03-26T02:43:28.666Z,7.12
2023-03-26T02:44:30.739Z,7.11
2023-03-26T02:45:32.792Z,7.12
2023-03-26T02:46:34.869Z,7.12
2023-03-26T02:47:36.772Z,7.14
2023-03-26T02:48:38.796Z,7.18
2023-03-26T02:49:40.898Z,7.21
2023-03-26T02:50:43.880Z,7.24
2023-03-26T02:51:46.044Z,7.29
2023-03-26T02:52:50.114Z,7.32
2023-03-26T02:53:53.955Z,7.34
2023-03-26T02:54:56.640Z,7.35
2023-03-26T02:56:00.582Z,7.33
2023-03-26T02:57:03.033Z,7.33
2023-03-26T02:58:04.808Z,7.33
2023-03-26T02:59:06.796Z,7.31
2023-03-26T03:00:09.713Z,7.25
2023-03-26T03:01:11.789Z,7.17
2023-03-26T03:02:13.840Z,7.13
2023-03-26T03:03:17.525Z,7.06
2023-03-26T03:04:19.744Z,7.07
2023-03-26T03:05:26.746Z,7.10
2023-03-26T03:06:31.246Z,7.16
2023-03-26T03:07:33.215Z,7.23
2023-03-26T03:08:35.200Z,7.26
2023-03-26T03:09:37.398Z,7.30
2023-03-26T03:10:40.013Z,7.36
2023-03-26T03:11:42.801Z,7.36
2023-03-26T03:12:44.813Z,7.41
2023-03-26T03:13:47.132Z,7.44
2023-03-26T03:14:49.086Z,7.43
2023-03-26T03:15:51.774Z,7.40
2023-03-26T03:16:54.172Z,7.37
2023-03-26T03:17:56.054Z,7.31
2023-03-26T03:18:58.501Z,7.27
2023-03-26T03:20:00.803Z,7.26
2023-03-26T03:21:03.531Z,7.25
2023-03-26T03:22:05.557Z,7.29
2023-03-26T03:23:07.471Z,7.36
2023-03-26T03:24:11.882Z,7.35
2023-03-26T03:25:14.881Z,7.36
2023-03-26T03:26:22.032Z,7.32
2023-03-26T03:27:26.491Z,7.32
2023-03-26T03:28:28.772Z,7.33
2023-03-26T03:29:30.761Z,7.38
2023-03-26T03:30:32.738Z,7.43
2023-03-26T03:31:34.761Z,7.45
2023-03-26T03:32:37.950Z,7.46
2023-03-26T03:33:41.719Z,7.44
2023-03-26T03:34:43.703Z,7.47
2023-03-26T03:35:46.210Z,7.49
2023-03-26T03:36:48.981Z,7.48
2023-03-26T03:37:51.496Z,7.46
2023-03-26T03:38:53.574Z,7.40
2023-03-26T03:39:55.582Z,7.27
2023-03-26T03:40:57.592Z,7.19
2023-03-26T03:41:59.548Z,7.05
2023-03-26T03:43:01.608Z,7.03
2023-03-26T03:44:03.598Z,7.00
2023-03-26T03:45:06.829Z,6.94
2023-03-26T03:46:08.875Z,6.94
2023-03-26T03:47:13.923Z,7.01
2023-03-26T03:48:15.969Z,6.99
2023-03-26T03:49:17.882Z,6.96
2023-03-26T03:50:20.070Z,6.95
2023-03-26T03:51:22.132Z,6.93
2023-03-26T03:52:24.191Z,6.93
2023-03-26T03:53:29.426Z,6.93
2023-03-26T03:54:31.656Z,6.91
2023-03-26T03:55:33.673Z,6.88
2023-03-26T03:56:36.266Z,6.81
2023-03-26T03:57:38.503Z,6.69
2023-03-26T03:58:41.721Z,6.62
2023-03-26T03:59:47.458Z,6.61
2023-03-26T04:00:52.014Z,6.56
2023-03-26T04:01:53.961Z,6.49
2023-03-26T04:02:56.557Z,6.52
2023-03-26T04:03:59.269Z,6.57
2023-03-26T04:05:02.727Z,6.61
2023-03-26T04:06:07.174Z,6.71
2023-03-26T04:07:09.106Z,6.79
2023-03-26T04:08:11.149Z,6.85
2023-03-26T04:09:13.243Z,6.84
2023-03-26T04:10:16.252Z,6.82
2023-03-26T04:11:18.580Z,6.76
2023-03-26T04:12:20.607Z,6.71
2023-03-26T04:13:22.651Z,6.68
2023-03-26T04:14:24.702Z,6.72
2023-03-26T04:15:26.647Z,6.74
2023-03-26T04:16:28.729Z,6.80
2023-03-26T04:17:31.056Z,6.82
2023-03-26T04:18:33.074Z,6.79
2023-03-26T04:19:35.283Z,6.81
2023-03-26T04:20:38.874Z,6.80
2023-03-26T04:21:43.067Z,6.83
2023-03-26T04:22:45.463Z,6.80
2023-03-26T04:23:47.294Z,6.83
2023-03-26T04:24:50.411Z,6.85
2023-03-26T04:25:54.763Z,6.75
2023-03-26T04:26:58.559Z,6.61
2023-03-26T04:28:06.757Z,6.65
2023-03-26T04:29:12.999Z,6.64
2023-03-26T04:30:20.864Z,6.56
2023-03-26T04:31:29.558Z,6.58
2023-03-26T04:32:35.792Z,6.58
2023-03-26T04:33:41.762Z,6.55
2023-03-26T04:34:46.363Z,6.59
2023-03-26T04:35:48.849Z,6.60
2023-03-26T04:36:54.833Z,6.56
2023-03-26T04:37:57.004Z,6.48
2023-03-26T04:39:02.788Z,6.44
2023-03-26T04:40:08.393Z,6.40
2023-03-26T04:41:12.901Z,6.43
2023-03-26T04:42:15.598Z,6.45
2023-03-26T04:43:18.274Z,6.43
2023-03-26T04:44:22.634Z,6.50
2023-03-26T04:45:24.757Z,6.54
2023-03-26T04:46:26.797Z,6.49
2023-03-26T04:47:29.367Z,6.41
2023-03-26T04:48:31.364Z,6.32
2023-03-26T04:49:33.396Z,6.31
2023-03-26T04:50:35.639Z,6.27
2023-03-26T04:51:39.523Z,6.30
2023-03-26T04:52:44.560Z,6.24
2023-03-26T04:53:58.049Z,6.29
2023-03-26T04:55:00.209Z,6.17
2023-03-26T04:56:39.855Z,6.04
2023-03-26T04:57:46.495Z,6.09
2023-03-26T04:58:50.569Z,6.19
2023-03-26T04:59:52.693Z,6.26
2023-03-26T05:00:54.683Z,6.31
2023-03-26T05:02:00.276Z,6.33
2023-03-26T05:03:02.315Z,6.38
2023-03-26T05:04:04.517Z,6.47
2023-03-26T05:05:06.797Z,6.51
2023-03-26T05:06:11.692Z,6.54
2023-03-26T05:07:19.392Z,6.58
2023-03-26T05:08:21.461Z,6.59
2023-03-26T05:09:23.407Z,6.53
2023-03-26T05:10:25.603Z,6.51
2023-03-26T05:11:28.785Z,6.55
2023-03-26T05:12:31.138Z,6.48
2023-03-26T05:13:33.014Z,6.46
2023-03-26T05:14:36.476Z,6.45
2023-03-26T05:15:38.501Z,6.44
2023-03-26T05:16:41.623Z,6.35
2023-03-26T05:17:43.865Z,6.24
2023-03-26T05:18:47.012Z,6.19
2023-03-26T05:19:49.207Z,6.18
2023-03-26T05:20:52.253Z,6.23
2023-03-26T05:21:54.210Z,6.28
2023-03-26T05:22:56.725Z,6.31
2023-03-26T05:23:58.663Z,6.36
2023-03-26T05:25:00.954Z,6.40
2023-03-26T05:26:03.095Z,6.48
2023-03-26T05:27:05.016Z,6.54
2023-03-26T05:28:07.061Z,6.56
2023-03-26T05:29:09.240Z,6.58
2023-03-26T05:30:16.105Z,6.65
2023-03-26T05:31:21.615Z,6.69
2023-03-26T05:32:23.603Z,6.73
2023-03-26T05:33:26.183Z,6.75
2023-03-26T05:34:28.229Z,6.66
2023-03-26T05:35:31.248Z,6.52
2023-03-26T05:36:33.632Z,6.52
2023-03-26T05:37:35.820Z,6.54
2023-03-26T05:38:37.802Z,6.54
2023-03-26T05:39:41.478Z,6.48
2023-03-26T05:40:43.398Z,6.49
2023-03-26T05:41:45.281Z,6.48
2023-03-26T05:42:47.675Z,6.55
2023-03-26T05:43:49.597Z,6.56
2023-03-26T05:44:51.615Z,6.51
2023-03-26T05:45:54.111Z,6.48
2023-03-26T05:46:56.214Z,6.53
2023-03-26T05:47:58.248Z,6.57
2023-03-26T05:49:00.268Z,6.66
2023-03-26T05:50:02.402Z,6.73
2023-03-26T05:51:05.573Z,6.75
2023-03-26T05:52:07.761Z,6.74
2023-03-26T05:53:09.918Z,6.78
2023-03-26T05:54:12.602Z,6.79
2023-03-26T05:55:14.681Z,6.80
2023-03-26T05:56:16.645Z,6.79
2023-03-26T05:57:19.156Z,6.75
2023-03-26T05:58:21.169Z,6.79
2023-03-26T05:59:24.050Z,6.73
2023-03-26T06:00:26.133Z,6.74
2023-03-26T06:01:29.644Z,6.75
2023-03-26T06:02:31.928Z,6.80
2023-03-26T06:03:40.690Z,6.85
2023-03-26T06:04:42.913Z,6.86
2023-03-26T06:05:44.904Z,6.87
2023-03-26T06:06:47.220Z,6.89
2023-03-26T06:07:49.209Z,6.89
2023-03-26T06:09:01.432Z,6.84
2023-03-26T06:10:05.270Z,6.86
2023-03-26T06:11:08.362Z,6.88
2023-03-26T06:12:11.831Z,6.89
2023-03-26T06:13:13.888Z,6.86
2023-03-26T06:14:16.082Z,6.87
2023-03-26T06:15:18.277Z,6.87
2023-03-26T06:16:27.757Z,6.89
2023-03-26T06:17:30.365Z,6.92
2023-03-26T06:18:32.481Z,6.96
2023-03-26T06:19:34.486Z,6.96
2023-03-26T06:20:36.944Z,6.99
2023-03-26T06:21:38.740Z,6.98
2023-03-26T06:22:40.745Z,6.98
2023-03-26T06:23:42.800Z,6.99
2023-03-26T06:24:44.762Z,6.99
2023-03-26T06:25:48.065Z,6.99
2023-03-26T06:26:50.180Z,7.00
2023-03-26T06:27:52.208Z,7.03
2023-03-26T06:28:54.173Z,7.06
2023-03-26T06:29:56.381Z,7.09
2023-03-26T06:31:01.848Z,7.10
2023-03-26T06:32:16.192Z,7.08
2023-03-26T06:33:24.085Z,7.07
2023-03-26T06:34:26.686Z,7.06
2023-03-26T06:35:30.346Z,7.05
2023-03-26T06:36:32.453Z,7.07
2023-03-26T06:37:34.568Z,7.09
2023-03-26T06:38:36.767Z,7.06
2023-03-26T06:39:38.866Z,7.06
2023-03-26T06:40:40.936Z,7.06
2023-03-26T06:41:43.055Z,7.10
2023-03-26T06:43:07.595Z,7.15
2023-03-26T06:44:07.162Z,7.20
2023-03-26T06:45:09.645Z,7.24
2023-03-26T06:46:12.457Z,7.26
2023-03-26T06:47:14.528Z,7.22
2023-03-26T06:48:16.666Z,7.20
2023-03-26T06:49:18.796Z,7.21
2023-03-26T06:50:20.957Z,7.24
2023-03-26T06:51:22.959Z,7.27
2023-03-26T06:52:25.048Z,7.31
2023-03-26T06:53:28.500Z,7.24
2023-03-26T06:54:30.640Z,7.21
2023-03-26T06:55:32.622Z,7.23
2023-03-26T06:56:34.758Z,7.29
2023-03-26T06:57:37.911Z,7.31
2023-03-26T06:58:39.937Z,7.32
2023-03-26T06:59:41.919Z,7.35
2023-03-26T07:00:44.106Z,7.40
2023-03-26T07:01:46.898Z,7.48
2023-03-26T07:02:49.138Z,7.53
2023-03-26T07:03:51.272Z,7.57
2023-03-26T07:04:53.798Z,7.57
2023-03-26T07:05:55.603Z,7.55
2023-03-26T07:07:04.932Z,7.56
2023-03-26T07:08:07.178Z,7.54
2023-03-26T07:09:09.190Z,7.56
2023-03-26T07:10:11.288Z,7.60
2023-03-26T07:11:13.368Z,7.63
2023-03-26T07:12:15.680Z,7.65
2023-03-26T07:13:17.705Z,7.67
2023-03-26T07:14:19.756Z,7.69
2023-03-26T07:15:21.861Z,7.71
2023-03-26T07:16:23.981Z,7.72
2023-03-26T07:17:26.069Z,7.66
2023-03-26T07:18:28.154Z,7.61
2023-03-26T07:19:30.227Z,7.63
2023-03-26T07:20:32.505Z,7.60
2023-03-26T07:21:34.624Z,7.63
2023-03-26T07:22:37.165Z,7.73
2023-03-26T07:23:39.147Z,7.79
2023-03-26T07:24:41.475Z,7.85
2023-03-26T07:25:43.356Z,7.90
2023-03-26T07:26:51.064Z,7.95
2023-03-26T07:28:12.504Z,8.01
2023-03-26T07:29:33.159Z,8.11
2023-03-26T07:30:50.224Z,8.15
2023-03-26T07:32:18.572Z,8.20
2023-03-26T07:33:40.483Z,8.19
2023-03-26T07:35:06.201Z,8.23
2023-03-26T07:36:26.920Z,8.31
2023-03-26T07:37:39.324Z,8.32
2023-03-26T07:38:55.918Z,8.37
2023-03-26T07:40:22.578Z,8.44
2023-03-26T07:41:36.443Z,8.50
2023-03-26T07:42:57.073Z,8.55
2023-03-26T07:44:41.241Z,8.58
2023-03-26T07:45:44.772Z,8.63
2023-03-26T07:46:48.315Z,8.64
2023-03-26T07:47:53.732Z,8.69
2023-03-26T07:48:58.581Z,8.72
2023-03-26T07:50:01.076Z,8.77
2023-03-26T07:51:04.032Z,8.82
2023-03-26T07:52:06.350Z,8.85
2023-03-26T07:53:08.517Z,8.83
2023-03-26T07:54:11.478Z,8.88
2023-03-26T07:55:17.543Z,8.91
2023-03-26T07:56:41.636Z,8.91
2023-03-26T07:57:55.174Z,8.93
2023-03-26T07:59:29.350Z,8.92
2023-03-26T08:00:35.478Z,8.93
2023-03-26T08:01:52.741Z,8.97
2023-03-26T08:03:17.134Z,9.00
2023-03-26T08:04:42.620Z,9.04
2023-03-26T08:06:15.089Z,9.08
2023-03-26T08:07:41.886Z,9.11
2023-03-26T08:09:04.158Z,9.10
2023-03-26T08:10:26.857Z,9.08
2023-03-26T08:12:27.229Z,9.12
2023-03-26T08:13:57.351Z,9.15
2023-03-26T08:15:11.460Z,9.19
2023-03-26T08:16:26.587Z,9.21
2023-03-26T08:18:04.331Z,9.28
2023-03-26T08:19:25.694Z,9.33
2023-03-26T08:20:59.963Z,9.43
2023-03-26T08:22:27.820Z,9.47
2023-03-26T08:24:00.485Z,9.60
2023-03-26T08:25:19.723Z,9.70
2023-03-26T08:26:24.135Z,9.74
2023-03-26T08:27:41.355Z,9.77
2023-03-26T08:28:59.238Z,9.82
2023-03-26T08:30:08.760Z,9.85
2023-03-26T08:31:13.912Z,9.86
2023-03-26T08:32:20.219Z,9.90
2023-03-26T08:33:26.106Z,9.89
2023-03-26T08:34:28.131Z,9.90
2023-03-26T08:35:30.362Z,9.92
2023-03-26T08:36:32.624Z,9.98
2023-03-26T08:37:34.642Z,10.03
2023-03-26T08:38:36.740Z,10.06
2023-03-26T08:39:40.158Z,10.09
2023-03-26T08:41:10.716Z,10.13
2023-03-26T08:42:36.978Z,10.19
2023-03-26T08:44:23.710Z,10.24
2023-03-26T08:45:37.849Z,10.30
2023-03-26T08:47:04.667Z,10.37
2023-03-26T08:48:50.741Z,10.44
2023-03-26T08:50:43.669Z,10.50
2023-03-26T08:52:26.618Z,10.70
2023-03-26T08:53:58.566Z,10.87
2023-03-26T08:55:09.170Z,10.94
2023-03-26T08:56:29.894Z,10.99
2023-03-26T08:57:34.871Z,11.02
2023-03-26T08:59:01.238Z,11.08
2023-03-26T09:00:22.402Z,11.08
2023-03-26T09:01:24.352Z,11.15
2023-03-26T09:02:58.512Z,11.24
2023-03-26T09:04:12.202Z,11.31
2023-03-26T09:05:44.568Z,11.36
2023-03-26T09:07:38.144Z,11.39
2023-03-26T09:08:53.795Z,11.41
2023-03-26T09:10:12.161Z,11.47
2023-03-26T09:11:37.541Z,11.47
2023-03-26T09:12:57.901Z,11.47
2023-03-26T09:14:47.447Z,11.52
2023-03-26T09:16:31.525Z,11.56
2023-03-26T09:18:12.445Z,11.67
2023-03-26T09:19:38.811Z,11.72
2023-03-26T09:21:25.817Z,11.72
2023-03-26T09:22:48.718Z,11.78
2023-03-26T09:23:58.094Z,11.88
2023-03-26T09:25:15.893Z,11.89
2023-03-26T09:27:11.261Z,11.93
2023-03-26T09:28:13.033Z,12.00
2023-03-26T09:29:32.750Z,12.08
2023-03-26T09:30:38.266Z,12.15
2023-03-26T09:31:58.468Z,12.19
2023-03-26T09:33:21.623Z,12.25
2023-03-26T09:34:49.196Z,12.29
2023-03-26T09:36:18.916Z,12.35
2023-03-26T09:37:27.008Z,12.38
2023-03-26T09:38:52.446Z,12.45
2023-03-26T09:40:15.692Z,12.45
2023-03-26T09:41:18.666Z,12.52
2023-03-26T09:42:39.035Z,12.59
2023-03-26T09:43:46.841Z,12.68
2023-03-26T09:44:54.210Z,12.72
2023-03-26T09:46:04.750Z,12.80
2023-03-26T09:47:22.630Z,12.89
2023-03-26T09:49:16.170Z,12.96
2023-03-26T09:50:29.923Z,12.98
2023-03-26T09:51:50.464Z,13.05
2023-03-26T09:53:20.158Z,13.14
2023-03-26T09:54:51.969Z,13.21
2023-03-26T09:56:09.653Z,13.17
2023-03-26T09:57:30.108Z,13.15
2023-03-26T09:58:51.701Z,13.23
2023-03-26T09:59:59.907Z,13.25
2023-03-26T10:01:18.754Z,13.26
2023-03-26T10:02:46.672Z,13.21
2023-03-26T10:03:53.534Z,13.22
2023-03-26T10:05:13.832Z,13.24
2023-03-26T10:06:15.904Z,13.32
2023-03-26T10:07:35.548Z,13.43
2023-03-26T10:08:47.601Z,13.49
2023-03-26T10:09:57.399Z,13.56
2023-03-26T10:11:02.537Z,13.58
2023-03-26T10:12:16.422Z,13.63
2023-03-26T10:13:23.857Z,13.66
2023-03-26T10:14:42.902Z,13.63
2023-03-26T10:16:05.015Z,13.64
2023-03-26T10:17:22.075Z,13.67
2023-03-26T10:18:49.088Z,13.68
2023-03-26T10:20:09.883Z,13.68
2023-03-26T10:21:17.391Z,13.65
2023-03-26T10:22:38.055Z,13.61
2023-03-26T10:23:48.622Z,13.60
2023-03-26T10:24:59.617Z,13.58
2023-03-26T10:26:11.632Z,13.62
2023-03-26T10:27:24.664Z,13.64
2023-03-26T10:28:36.669Z,13.62
2023-03-26T10:30:00.562Z,13.64
2023-03-26T10:31:08.303Z,13.70
2023-03-26T10:32:29.937Z,13.74
2023-03-26T10:33:42.686Z,13.78
2023-03-26T10:34:53.386Z,13.77
2023-03-26T10:36:13.865Z,13.74
2023-03-26T10:37:16.574Z,13.77
2023-03-26T10:38:56.972Z,13.79
2023-03-26T10:40:17.590Z,13.75
2023-03-26T10:41:37.946Z,13.78
2023-03-26T10:42:58.281Z,13.84
2023-03-26T10:44:09.255Z,13.84
2023-03-26T10:45:13.928Z,13.86
2023-03-26T10:46:15.845Z,13.90
2023-03-26T10:47:24.424Z,13.93
2023-03-26T10:48:42.171Z,13.98
2023-03-26T10:50:02.888Z,14.04
2023-03-26T10:51:04.789Z,14.06
2023-03-26T10:52:16.549Z,14.09
2023-03-26T10:53:21.409Z,14.11
2023-03-26T10:54:51.079Z,14.14
2023-03-26T10:55:58.806Z,14.16
2023-03-26T10:57:04.648Z,14.21
2023-03-26T10:58:19.309Z,14.30
2023-03-26T10:59:21.673Z,14.33
2023-03-26T11:00:27.553Z,14.37
2023-03-26T11:01:42.338Z,14.48
2023-03-26T11:03:08.236Z,14.58
2023-03-26T11:04:42.520Z,14.73
2023-03-26T11:06:13.838Z,14.84
2023-03-26T11:07:33.953Z,14.96
2023-03-26T11:09:02.131Z,15.08
2023-03-26T11:10:41.583Z,15.12
2023-03-26T11:12:03.487Z,15.14
2023-03-26T11:14:03.812Z,15.25
2023-03-26T11:15:18.286Z,15.32
2023-03-26T11:16:28.822Z,15.33
2023-03-26T11:17:46.494Z,15.34
2023-03-26T11:18:59.601Z,15.38
2023-03-26T11:20:08.695Z,15.37
2023-03-26T11:21:22.915Z,15.37
2023-03-26T11:22:48.911Z,15.43
2023-03-26T11:24:29.454Z,15.39
2023-03-26T11:26:09.874Z,15.34
2023-03-26T11:27:19.717Z,15.34
2023-03-26T11:29:03.124Z,15.33
2023-03-26T11:30:14.579Z,15.35
2023-03-26T11:31:34.974Z,15.38
2023-03-26T11:32:39.343Z,15.43
2023-03-26T11:33:47.387Z,15.49
2023-03-26T11:34:59.731Z,15.52
2023-03-26T11:36:03.921Z,15.57
2023-03-26T11:37:08.775Z,15.63
2023-03-26T11:38:22.317Z,15.67
2023-03-26T11:39:26.443Z,15.68
2023-03-26T11:40:37.445Z,15.73
2023-03-26T11:41:39.686Z,15.88
2023-03-26T11:42:42.542Z,15.95
2023-03-26T11:43:46.588Z,16.02
2023-03-26T11:44:53.598Z,16.11
2023-03-26T11:45:55.758Z,16.19
2023-03-26T11:47:04.577Z,16.24
2023-03-26T11:48:09.826Z,16.32
2023-03-26T11:49:15.037Z,16.41
2023-03-26T11:50:30.831Z,16.52
2023-03-26T11:51:35.530Z,16.56
2023-03-26T11:52:37.792Z,16.53
2023-03-26T11:53:40.095Z,16.55
2023-03-26T11:54:43.668Z,16.64
2023-03-26T11:56:05.371Z,16.71
2023-03-26T11:57:16.818Z,16.79
2023-03-26T11:58:28.225Z,16.89
2023-03-26T11:59:55.896Z,16.94
2023-03-26T12:00:59.326Z,16.98
2023-03-26T12:02:10.417Z,17.06
2023-03-26T12:03:16.325Z,17.08
2023-03-26T12:04:19.686Z,17.16
2023-03-26T12:05:31.822Z,17.17
2023-03-26T12:06:34.828Z,17.18
2023-03-26T12:07:37.504Z,17.19
2023-03-26T12:08:40.367Z,17.16
2023-03-26T12:09:52.578Z,17.09
2023-03-26T12:11:04.115Z,17.02
2023-03-26T12:12:06.501Z,16.97
2023-03-26T12:13:35.205Z,16.91
2023-03-26T12:14:42.866Z,16.81
2023-03-26T12:15:44.926Z,16.74
2023-03-26T12:17:07.007Z,16.68
2023-03-26T12:18:26.333Z,16.62
2023-03-26T12:19:34.319Z,16.55
2023-03-26T12:20:37.533Z,16.52
2023-03-26T12:21:59.843Z,16.46
2023-03-26T12:23:02.771Z,16.33
2023-03-26T12:24:08.971Z,16.25
2023-03-26T12:25:16.394Z,16.20
2023-03-26T12:26:21.014Z,16.16
2023-03-26T12:27:28.850Z,16.14
2023-03-26T12:28:33.802Z,16.06
2023-03-26T12:29:36.164Z,15.95
2023-03-26T12:30:40.031Z,15.86
2023-03-26T12:32:03.091Z,15.78
2023-03-26T12:33:07.609Z,15.72
2023-03-26T12:34:15.697Z,15.69
2023-03-26T12:35:27.134Z,15.67
2023-03-26T12:36:31.308Z,15.63
2023-03-26T12:37:37.697Z,15.56
2023-03-26T12:38:41.008Z,15.52
2023-03-26T12:40:09.854Z,15.50
2023-03-26T12:41:08.250Z,15.49
2023-03-26T12:42:36.906Z,15.42
2023-03-26T12:44:52.690Z,15.34
2023-03-26T12:45:41.182Z,15.32
2023-03-26T12:47:57.272Z,15.31
2023-03-26T12:48:13.712Z,15.33
2023-03-26T12:49:15.875Z,15.37
2023-03-26T12:50:17.892Z,15.33
2023-03-26T12:51:43.544Z,15.32
2023-03-26T12:52:45.541Z,15.29
2023-03-26T12:53:59.684Z,15.25
2023-03-26T12:55:12.242Z,15.21
2023-03-26T12:56:20.120Z,15.14
2023-03-26T12:57:31.293Z,15.12
2023-03-26T12:58:55.351Z,15.05
2023-03-26T13:00:11.113Z,15.02
2023-03-26T13:01:16.242Z,15.01
2023-03-26T13:02:33.188Z,14.99
2023-03-26T13:03:47.043Z,14.89
2023-03-26T13:05:15.383Z,14.91
2023-03-26T13:06:29.865Z,14.88
2023-03-26T13:08:07.872Z,14.77
2023-03-26T13:09:09.716Z,14.73
2023-03-26T13:10:32.245Z,14.65
2023-03-26T13:12:06.357Z,14.46
2023-03-26T13:13:32.682Z,14.48
2023-03-26T13:14:52.947Z,14.47
2023-03-26T13:15:59.442Z,14.53
2023-03-26T13:17:19.832Z,14.55
2023-03-26T13:18:21.696Z,14.56
2023-03-26T13:19:42.288Z,14.57
2023-03-26T13:20:49.636Z,14.55
2023-03-26T13:22:06.253Z,14.58
2023-03-26T13:23:08.915Z,14.61
2023-03-26T13:24:16.748Z,14.63
2023-03-26T13:25:30.822Z,14.59
2023-03-26T13:26:39.983Z,14.61
2023-03-26T13:27:57.684Z,14.63
2023-03-26T13:29:16.224Z,14.65
2023-03-26T13:30:17.970Z,14.68
2023-03-26T13:31:24.726Z,14.67
2023-03-26T13:32:59.247Z,14.69
2023-03-26T13:34:21.581Z,14.72
2023-03-26T13:35:30.342Z,14.73
2023-03-26T13:36:37.994Z,14.67
2023-03-26T13:38:06.378Z,14.62
2023-03-26T13:39:40.576Z,14.60
2023-03-26T13:40:45.459Z,14.56
2023-03-26T13:41:53.172Z,14.53
2023-03-26T13:42:56.838Z,14.51
2023-03-26T13:43:58.916Z,14.46
2023-03-26T13:45:09.355Z,14.44
2023-03-26T13:46:30.248Z,14.41
2023-03-26T13:47:35.362Z,14.39
2023-03-26T13:48:57.579Z,14.40
2023-03-26T13:50:06.776Z,14.39
2023-03-26T13:51:12.812Z,14.33
2023-03-26T13:52:20.385Z,14.25
2023-03-26T13:53:25.637Z,14.23
2023-03-26T13:54:37.771Z,14.25
2023-03-26T13:56:09.650Z,14.17
2023-03-26T13:57:21.846Z,14.11
2023-03-26T13:58:23.657Z,14.08
2023-03-26T13:59:44.261Z,14.06
2023-03-26T14:00:54.749Z,14.04
2023-03-26T14:02:02.787Z,14.06
2023-03-26T14:03:11.120Z,14.07
2023-03-26T14:04:18.487Z,14.09
2023-03-26T14:05:34.277Z,14.10
2023-03-26T14:06:42.763Z,14.10
2023-03-26T14:07:47.659Z,14.07
2023-03-26T14:08:56.713Z,14.07
2023-03-26T14:10:06.798Z,14.07
2023-03-26T14:11:11.497Z,14.08
2023-03-26T14:12:21.481Z,14.10
2023-03-26T14:13:27.229Z,14.10
2023-03-26T14:14:34.204Z,14.10
2023-03-26T14:15:36.279Z,14.08
2023-03-26T14:16:48.142Z,14.10
2023-03-26T14:18:01.978Z,14.13
2023-03-26T14:19:13.058Z,14.10
2023-03-26T14:20:18.424Z,14.11
2023-03-26T14:21:39.847Z,14.10
2023-03-26T14:22:50.134Z,14.11
2023-03-26T14:24:01.019Z,14.11
2023-03-26T14:25:02.998Z,14.09
2023-03-26T14:26:11.457Z,14.06
2023-03-26T14:27:16.280Z,14.06
2023-03-26T14:28:39.925Z,14.05
2023-03-26T14:29:56.697Z,14.03
2023-03-26T14:30:59.023Z,14.05
2023-03-26T14:32:13.391Z,14.06
2023-03-26T14:33:28.272Z,14.04
2023-03-26T14:34:35.158Z,13.99
2023-03-26T14:35:41.265Z,13.97
2023-03-26T14:37:06.232Z,13.96
2023-03-26T14:38:09.949Z,13.96
2023-03-26T14:39:21.189Z,13.95
2023-03-26T14:40:29.075Z,13.92
2023-03-26T14:41:43.645Z,13.90
2023-03-26T14:43:04.675Z,13.89
2023-03-26T14:44:09.798Z,13.85
2023-03-26T14:45:11.592Z,13.83
2023-03-26T14:46:17.067Z,13.81
2023-03-26T14:47:24.832Z,13.84
2023-03-26T14:48:34.392Z,13.82
2023-03-26T14:49:36.463Z,13.79
2023-03-26T14:50:47.097Z,13.76
2023-03-26T14:51:55.307Z,13.71
2023-03-26T14:53:00.920Z,13.70
2023-03-26T14:54:20.106Z,13.65
2023-03-26T14:55:59.733Z,13.59
2023-03-26T14:57:39.105Z,13.56
2023-03-26T14:59:19.473Z,13.54
2023-03-26T15:00:39.206Z,13.57
2023-03-26T15:02:04.541Z,13.55
2023-03-26T15:03:16.146Z,13.57
2023-03-26T15:04:44.383Z,13.53
2023-03-26T15:05:47.044Z,13.47
2023-03-26T15:07:10.995Z,13.42
2023-03-26T15:08:41.063Z,13.40
2023-03-26T15:09:51.820Z,13.44
2023-03-26T15:11:15.551Z,13.40
2023-03-26T15:12:23.757Z,13.34
2023-03-26T15:13:28.218Z,13.34
2023-03-26T15:14:51.803Z,13.30